Time;durP1;ratioP1;P1;durP2;ratioP2;P2;SDS_P1;SDS_P2;PMS_P1;PMS_P2;Temp;Humidity;BMP_temperature;BMP_pressure;BME280_temperature;BME280_humidity;BME280_pressure;Samples;Min_cycle;Max_cycle;Signal;HPM_P1;HPM_P2
2021/06/03 00:00:00;;;;;;;;;;;15.60;99.90;;;15.30;90.67;100829.34;5073829;28;20449;-63
2021/06/03 00:02:28;;;;;;;;;;;15.60;99.90;;;15.26;90.60;100826.44;5073874;28;20254;-63
2021/06/03 00:04:56;;;;;;;;;;;15.60;99.90;;;15.25;90.55;100833.03;5072762;28;19978;-63
2021/06/03 00:07:24;;;;;;;;;;;15.50;99.90;;;15.22;90.82;100833.69;5073491;28;20286;-63
2021/06/03 00:09:51;;;;;;;;;;;15.60;99.90;;;15.19;91.02;100831.59;5073651;28;19925;-63
2021/06/03 00:12:18;;;;;;;;;;;15.50;99.90;;;15.15;91.22;100836.06;5073598;28;19925;-63
2021/06/03 00:14:46;;;;;;;;;;;15.50;99.90;;;15.11;91.12;100832.38;5072726;28;19939;-63
2021/06/03 00:17:13;;;;;;;;;;;15.50;99.90;;;15.07;91.57;100828.69;5073070;28;19986;-63
2021/06/03 00:19:40;;;;;;;;;;;15.40;99.90;;;15.04;91.75;100828.53;5073536;28;19925;-65
2021/06/03 00:22:09;;;;;;;;;;;15.40;99.90;;;15.02;91.88;100828.84;5073589;28;19986;-65
2021/06/03 00:24:36;;;;;;;;;;;15.30;99.90;;;15.01;91.95;100832.69;5072438;28;19925;-65
2021/06/03 00:27:04;;;;;;;;;;;15.40;99.90;;;14.99;91.69;100829.47;5073168;28;19924;-63
2021/06/03 00:29:31;;;;;;;;;;;15.30;99.90;;;14.99;91.78;100828.66;5073198;28;19928;-63
2021/06/03 00:31:58;;;;;;;;;;;15.30;99.90;;;14.96;91.62;100821.94;5073238;28;20417;-65
2021/06/03 00:34:25;;;;;;;;;;;15.30;99.90;;;14.94;91.89;100828.84;5072413;28;19925;-63
2021/06/03 00:36:53;;;;;;;;;;;15.30;99.90;;;14.92;92.02;100829.16;5072441;28;19931;-64
2021/06/03 00:39:22;;;;;;;;;;;15.20;99.90;;;14.90;91.96;100836.03;5073136;28;19931;-64
2021/06/03 00:41:49;;;;;;;;;;;15.20;99.90;;;14.87;91.91;100832.03;5073022;28;19928;-64
2021/06/03 00:44:17;;;;;;;;;;;15.20;99.90;;;14.84;91.82;100827.22;5072373;28;19925;-63
2021/06/03 00:46:44;;;;;;;;;;;15.10;99.90;;;14.82;91.96;100831.38;5072102;28;20387;-63
2021/06/03 00:49:11;;;;;;;;;;;15.10;99.90;;;14.80;91.70;100829.00;5072890;28;19931;-64
2021/06/03 00:51:39;;;;;;;;;;;15.10;99.90;;;14.76;91.79;100828.00;5072956;28;19932;-66
2021/06/03 00:54:06;;;;;;;;;;;15.10;99.90;;;14.71;91.54;100823.50;5072496;28;19924;-65
2021/06/03 00:56:37;;;;;;;;;;;15.00;99.90;;;14.69;91.00;100827.66;5071760;28;19931;-65
2021/06/03 00:59:05;;;;;;;;;;;15.00;99.90;;;14.66;90.60;100820.13;5072882;28;19956;-66
2021/06/03 01:01:32;;;;;;;;;;;14.90;99.90;;;14.62;89.71;100827.34;5072529;28;20340;-65
2021/06/03 01:03:59;;;;;;;;;;;14.90;99.90;;;14.59;89.40;100826.03;5072415;28;20423;-65
2021/06/03 01:06:27;;;;;;;;;;;14.90;99.90;;;14.58;88.62;100829.09;5071653;28;20366;-65
2021/06/03 01:08:59;;;;;;;;;;;14.90;99.90;;;14.56;88.22;100826.66;5072631;28;19931;-65
2021/06/03 01:11:31;;;;;;;;;;;14.80;99.90;;;14.57;87.47;100836.44;5072696;28;20369;-65
2021/06/03 01:14:05;;;;;;;;;;;14.80;99.90;;;14.54;87.21;100847.97;5072520;28;19954;-65
2021/06/03 01:16:34;;;;;;;;;;;14.80;99.90;;;14.53;86.88;100834.69;5071821;28;19924;-65
2021/06/03 01:19:03;;;;;;;;;;;14.80;99.90;;;14.46;86.85;100837.84;5072812;28;19925;-65
2021/06/03 01:21:34;;;;;;;;;;;14.80;99.90;;;14.44;87.27;100837.34;5072472;28;19932;-65
2021/06/03 01:24:25;;;;;;;;;;;14.70;99.90;;;14.42;87.18;100844.22;5072175;28;19928;-65
2021/06/03 01:26:53;;;;;;;;;;;14.70;99.90;;;14.38;86.71;100837.81;5071859;28;19925;-66
2021/06/03 01:29:21;;;;;;;;;;;14.70;99.90;;;14.36;86.88;100845.47;5072590;28;19970;-63
2021/06/03 01:31:50;;;;;;;;;;;14.70;99.90;;;14.34;86.78;100847.72;5072160;28;19924;-63
2021/06/03 01:34:19;;;;;;;;;;;14.60;99.90;;;14.30;86.79;100842.06;5071901;28;19985;-63
2021/06/03 01:36:47;;;;;;;;;;;14.60;99.90;;;14.27;86.60;100841.91;5071484;28;19978;-63
2021/06/03 01:39:15;;;;;;;;;;;14.60;99.90;;;14.21;87.13;100836.59;5072507;28;19924;-63
2021/06/03 01:41:45;;;;;;;;;;;14.50;99.90;;;14.16;87.28;100836.72;5072413;28;20313;-63
2021/06/03 01:44:13;;;;;;;;;;;14.50;99.90;;;14.15;87.08;100831.59;5071786;28;19931;-63
2021/06/03 01:46:41;;;;;;;;;;;14.50;99.90;;;14.12;87.30;100833.03;5071269;28;19925;-64
2021/06/03 01:49:08;;;;;;;;;;;14.40;99.90;;;14.05;88.11;100835.41;5072282;28;20458;-65
2021/06/03 01:51:35;;;;;;;;;;;14.40;99.90;;;14.03;88.08;100836.81;5072351;28;20378;-63
2021/06/03 01:54:03;;;;;;;;;;;14.30;99.90;;;14.00;88.11;100832.81;5071629;28;19932;-63
2021/06/03 01:56:30;;;;;;;;;;;14.30;99.90;;;13.97;88.20;100836.16;5071279;28;19949;-63
2021/06/03 01:58:59;;;;;;;;;;;14.30;99.90;;;13.94;88.37;100834.06;5072209;28;19947;-63
2021/06/03 02:01:26;;;;;;;;;;;14.30;99.90;;;13.91;89.12;100837.41;5072083;28;20343;-63
2021/06/03 02:03:54;;;;;;;;;;;14.20;99.90;;;13.93;88.60;100828.94;5071749;28;19928;-64
2021/06/03 02:06:21;;;;;;;;;;;14.20;99.90;;;13.91;88.68;100831.97;5071134;28;19924;-64
2021/06/03 02:08:48;;;;;;;;;;;14.20;99.90;;;13.88;88.28;100837.22;5072074;28;20270;-63
2021/06/03 02:11:16;;;;;;;;;;;14.20;99.90;;;13.89;88.50;100842.34;5072094;28;19929;-63
2021/06/03 02:13:45;;;;;;;;;;;14.20;99.90;;;13.89;88.51;100838.84;5075266;28;19951;-64
2021/06/03 02:16:17;;;;;;;;;;;14.20;99.90;;;13.85;88.47;100833.22;5074796;28;19929;-63
2021/06/03 02:18:48;;;;;;;;;;;14.20;99.90;;;13.83;88.38;100838.13;5075945;28;19924;-63
2021/06/03 02:21:16;;;;;;;;;;;14.20;99.90;;;13.82;88.40;100844.72;5075691;28;19924;-64
2021/06/03 02:23:45;;;;;;;;;;;14.10;99.90;;;13.80;88.95;100838.75;5075381;28;19924;-64
2021/06/03 02:26:12;;;;;;;;;;;14.10;99.90;;;13.81;88.86;100840.38;5074492;28;19932;-64
2021/06/03 02:28:42;;;;;;;;;;;14.10;99.90;;;13.81;88.29;100843.09;5075557;28;19924;-64
2021/06/03 02:31:09;;;;;;;;;;;14.10;99.90;;;13.80;88.45;100846.13;5075577;28;19924;-64
2021/06/03 02:33:39;;;;;;;;;;;14.10;99.90;;;13.76;88.57;100848.66;5074977;28;19990;-63
2021/06/03 02:36:06;;;;;;;;;;;14.00;99.90;;;13.75;88.39;100854.41;5074304;28;20412;-63
2021/06/03 02:38:35;;;;;;;;;;;14.00;99.90;;;13.73;88.75;100846.56;5075270;28;20385;-64
2021/06/03 02:41:06;;;;;;;;;;;14.00;99.90;;;13.72;88.54;100847.66;5075490;28;19935;-63
2021/06/03 02:43:34;;;;;;;;;;;14.00;99.90;;;13.71;88.90;100843.34;5075077;28;19925;-64
2021/06/03 02:46:01;;;;;;;;;;;14.00;99.90;;;13.71;88.72;100846.06;5074016;28;19997;-63
2021/06/03 02:48:29;;;;;;;;;;;14.00;99.90;;;13.71;89.06;100834.41;5074990;28;19925;-63
2021/06/03 02:50:58;;;;;;;;;;;14.00;99.90;;;13.69;88.89;100842.84;5075137;28;20058;-63
2021/06/03 02:53:25;;;;;;;;;;;13.90;99.90;;;13.67;88.61;100847.81;5074814;28;19950;-64
2021/06/03 02:55:52;;;;;;;;;;;13.90;99.90;;;13.63;88.91;100846.81;5073942;28;19924;-63
2021/06/03 02:58:20;;;;;;;;;;;13.90;99.90;;;13.57;89.11;100846.13;5074620;28;19928;-63
2021/06/03 03:00:47;;;;;;;;;;;13.80;99.90;;;13.52;89.15;100848.19;5075016;28;19925;-63
2021/06/03 03:03:14;;;;;;;;;;;13.80;99.90;;;13.46;89.26;100844.78;5074935;28;19924;-63
2021/06/03 03:05:43;;;;;;;;;;;13.70;99.90;;;13.46;89.89;100844.78;5073603;28;19936;-63
2021/06/03 03:08:12;;;;;;;;;;;13.70;99.90;;;13.41;89.95;100844.06;5074540;28;19924;-63
2021/06/03 03:10:41;;;;;;;;;;;13.70;99.90;;;13.37;90.08;100856.69;5074596;28;20003;-63
2021/06/03 03:13:08;;;;;;;;;;;13.70;99.90;;;13.35;89.94;100864.31;5074406;28;20420;-63
2021/06/03 03:15:36;;;;;;;;;;;13.60;99.90;;;13.33;90.11;100858.41;5073578;28;19928;-63
2021/06/03 03:18:04;;;;;;;;;;;13.60;99.90;;;13.34;90.41;100860.81;5074242;28;19925;-63
2021/06/03 03:20:32;;;;;;;;;;;13.60;99.90;;;13.35;89.90;100858.88;5074382;28;19931;-64
2021/06/03 03:22:59;;;;;;;;;;;13.60;99.90;;;13.29;89.56;100857.41;5073976;28;20394;-64
2021/06/03 03:25:29;;;;;;;;;;;13.60;99.90;;;13.21;90.12;100856.22;5073345;28;19925;-64
2021/06/03 03:27:57;;;;;;;;;;;;;;;13.14;90.12;100847.69;5074149;28;19935;-64
2021/06/03 03:30:27;;;;;;;;;;;;;;;13.07;90.39;100858.94;5074505;28;19924;-64
2021/06/03 03:32:54;;;;;;;;;;;;;;;13.03;90.61;100862.56;5074207;28;19924;-63
2021/06/03 03:35:23;;;;;;;;;;;;;;;12.99;90.80;100859.66;5073212;28;19928;-63
2021/06/03 03:37:50;;;;;;;;;;;13.30;99.90;;;13.00;91.01;100866.72;5073881;28;19925;-63
2021/06/03 03:40:19;;;;;;;;;;;13.30;99.90;;;13.01;90.56;100868.28;5074284;28;19924;-64
2021/06/03 03:42:48;;;;;;;;;;;13.30;99.90;;;12.99;90.26;100861.56;5074095;28;19944;-64
2021/06/03 03:45:17;;;;;;;;;;;13.30;99.90;;;12.97;90.01;100859.19;5072940;28;19924;-63
2021/06/03 03:47:45;;;;;;;;;;;13.30;99.90;;;13.00;90.10;100865.91;5073641;28;19940;-64
2021/06/03 03:50:14;;;;;;;;;;;13.30;99.90;;;13.01;89.67;100868.28;5074102;28;19935;-64
2021/06/03 03:52:42;;;;;;;;;;;13.30;99.90;;;13.03;89.40;100859.88;5073860;28;20650;-63
2021/06/03 03:55:10;;;;;;;;;;;13.30;99.90;;;12.99;89.57;100862.38;5072948;28;19924;-64
2021/06/03 03:57:38;;;;;;;;;;;13.30;99.90;;;12.99;89.12;100864.28;5073350;28;19940;-63
2021/06/03 04:00:09;;;;;;;;;;;13.30;99.90;;;12.97;89.25;100869.22;5073639;28;20019;-64
2021/06/03 04:02:36;;;;;;;;;;;13.20;99.90;;;12.93;89.56;100866.31;5073883;28;19928;-64
2021/06/03 04:05:04;;;;;;;;;;;13.20;99.90;;;12.92;89.02;100864.69;5072739;28;19921;-64
2021/06/03 04:07:32;;;;;;;;;;;13.20;99.90;;;12.88;89.25;100866.44;5073418;28;19929;-64
2021/06/03 04:09:59;;;;;;;;;;;13.20;99.90;;;12.88;89.58;100863.72;5073359;28;20331;-64
2021/06/03 04:12:26;;;;;;;;;;;13.20;99.90;;;12.90;89.35;100875.06;5073285;28;19929;-64
2021/06/03 04:14:54;;;;;;;;;;;13.20;99.90;;;12.91;89.10;100871.25;5072510;28;19928;-64
2021/06/03 04:17:22;;;;;;;;;;;13.20;99.90;;;12.93;89.08;100871.75;5073131;28;19925;-64
2021/06/03 04:19:49;;;;;;;;;;;13.20;99.90;;;12.94;88.84;100876.06;5073487;28;19925;-64
2021/06/03 04:22:17;;;;;;;;;;;13.20;99.90;;;12.95;88.95;100876.88;5073310;28;19925;-63
2021/06/03 04:24:44;;;;;;;;;;;13.20;99.90;;;12.95;88.82;100877.66;5072348;28;19970;-64
2021/06/03 04:27:11;;;;;;;;;;;13.20;99.90;;;12.97;88.44;100877.38;5072987;28;19924;-64
2021/06/03 04:29:38;;;;;;;;;;;13.20;99.90;;;12.95;88.36;100880.38;5073092;28;19931;-64
2021/06/03 04:32:07;;;;;;;;;;;13.20;99.90;;;12.93;88.34;100887.22;5073142;28;19931;-64
2021/06/03 04:34:35;;;;;;;;;;;13.20;99.90;;;12.90;88.53;100888.63;5071569;28;19924;-64
2021/06/03 04:37:03;;;;;;;;;;;13.20;99.90;;;12.89;88.76;100891.63;5072725;28;19932;-64
2021/06/03 04:39:30;;;;;;;;;;;13.20;99.90;;;12.82;88.53;100893.97;5072677;28;19925;-64
2021/06/03 04:41:57;;;;;;;;;;;13.00;99.90;;;12.60;89.07;100890.06;5072908;28;20409;-63
2021/06/03 04:44:25;;;;;;;;;;;13.00;99.90;;;12.44;90.02;100893.34;5072501;28;19924;-64
2021/06/03 04:46:52;;;;;;;;;;;12.80;99.90;;;12.42;90.41;100901.00;5072167;28;19998;-63
2021/06/03 04:49:19;;;;;;;;;;;12.80;99.90;;;12.35;90.10;100897.84;5072777;28;19924;-64
2021/06/03 04:51:48;;;;;;;;;;;12.80;99.90;;;12.38;90.52;100900.78;5072805;28;19924;-64
2021/06/03 04:54:15;;;;;;;;;;;12.70;99.90;;;12.40;90.05;100900.50;5072277;28;19924;-64
2021/06/03 04:56:43;;;;;;;;;;;12.70;99.90;;;12.42;90.58;100898.28;5071688;28;19931;-64
2021/06/03 04:59:11;;;;;;;;;;;12.70;99.90;;;12.44;90.01;100896.06;5072491;28;19928;-63
2021/06/03 05:01:40;;;;;;;;;;;12.70;99.90;;;12.46;90.57;100891.94;5072720;28;19924;-64
2021/06/03 05:04:07;;;;;;;;;;;12.70;99.90;;;12.47;90.26;100890.84;5072126;28;19925;-63
2021/06/03 05:06:34;;;;;;;;;;;12.80;99.90;;;12.49;90.60;100891.34;5071602;28;19998;-64
2021/06/03 05:09:03;;;;;;;;;;;12.80;99.90;;;12.35;90.18;100895.97;5072301;28;19928;-64
2021/06/03 05:11:30;;;;;;;;;;;12.60;99.90;;;12.34;91.09;100896.28;5072482;28;19982;-64
2021/06/03 05:13:58;;;;;;;;;;;12.60;99.90;;;12.29;91.18;100890.91;5072357;28;19932;-64
2021/06/03 05:16:25;;;;;;;;;;;12.60;99.90;;;12.37;91.27;100890.25;5071480;28;19931;-63
2021/06/03 05:18:52;;;;;;;;;;;12.60;99.90;;;12.35;90.77;100895.16;5072486;28;19924;-63
2021/06/03 05:21:19;;;;;;;;;;;12.60;99.90;;;12.25;91.20;100893.41;5072299;28;19947;-63
2021/06/03 05:23:46;;;;;;;;;;;12.60;99.90;;;12.29;91.81;100893.63;5072312;28;19928;-63
2021/06/03 05:26:15;;;;;;;;;;;12.60;99.90;;;12.35;91.67;100892.44;5071410;28;19924;-63
2021/06/03 05:28:43;;;;;;;;;;;12.60;99.90;;;12.26;91.23;100892.31;5072542;28;19924;-63
2021/06/03 05:31:10;;;;;;;;;;;12.60;99.90;;;12.15;91.64;100903.66;5072195;28;19925;-63
2021/06/03 05:33:37;;;;;;;;;;;;;;;12.45;92.20;100897.69;5072220;28;19932;-63
2021/06/03 05:36:05;;;;;;;;;;;12.70;99.90;;;13.26;88.78;100894.13;5071300;28;19924;-63
2021/06/03 05:38:33;;;;;;;;;;;13.40;99.90;;;14.30;83.13;100884.78;5072399;28;19932;-64
2021/06/03 05:41:00;;;;;;;;;;;14.20;99.90;;;15.20;77.54;100889.56;5072034;28;19931;-64
2021/06/03 05:43:30;;;;;;;;;;;;;;;15.86;73.70;100888.34;5072240;28;19977;-64
2021/06/03 05:45:57;;;;;;;;;;;15.80;99.90;;;16.33;70.88;100889.16;5071940;28;19935;-64
2021/06/03 05:48:24;;;;;;;;;;;16.20;99.90;;;17.06;68.01;100893.34;5076199;28;19948;-64
2021/06/03 05:50:51;;;;;;;;;;;17.00;99.90;;;17.88;64.73;100886.28;5076338;28;20278;-64
2021/06/03 05:53:18;;;;;;;;;;;17.50;99.90;;;17.96;62.76;100879.94;5076273;28;20388;-64
2021/06/03 05:55:46;;;;;;;;;;;17.90;99.90;;;17.72;63.41;100893.53;5074804;28;20329;-64
2021/06/03 05:58:13;;;;;;;;;;;17.70;99.90;;;18.18;61.48;100882.25;5076081;28;19948;-64
2021/06/03 06:00:42;;;;;;;;;;;18.20;99.90;;;19.43;58.71;100883.19;5075931;28;19924;-64
2021/06/03 06:03:14;;;;;;;;;;;19.50;99.90;;;20.54;54.65;100880.38;5075914;28;19939;-64
2021/06/03 06:06:12;;;;;;;;;;;20.30;99.90;;;21.47;51.42;100886.81;5074606;28;19929;-63
2021/06/03 06:08:39;;;;;;;;;;;21.40;99.90;;;22.36;48.48;100877.53;5076139;28;19925;-66
2021/06/03 06:11:07;;;;;;;;;;;21.80;99.90;;;23.05;46.96;100882.63;5075486;28;19924;-66
2021/06/03 06:13:35;;;;;;;;;;;22.60;99.90;;;23.55;45.26;100878.59;5075654;28;19932;-65
2021/06/03 06:16:04;;;;;;;;;;;23.10;99.90;;;24.00;44.34;100885.81;5074682;28;19939;-65
2021/06/03 06:18:32;;;;;;;;;;;23.60;99.90;;;24.61;42.49;100887.19;5075687;28;19924;-65
2021/06/03 06:20:59;;;;;;;;;;;24.20;99.90;;;24.94;41.64;100881.53;5075591;28;20347;-65
2021/06/03 06:23:26;;;;;;;;;;;24.60;99.90;;;25.26;40.78;100887.28;5075601;28;19978;-66
2021/06/03 06:25:54;;;;;;;;;;;25.00;99.90;;;25.32;40.51;100894.03;5074529;28;19925;-66
2021/06/03 06:28:21;;;;;;;;;;;25.30;99.90;;;25.56;40.10;100896.16;5075468;28;20461;-65
2021/06/03 06:30:48;;;;;;;;;;;25.80;99.90;;;25.89;39.27;100897.84;5075379;28;19924;-65
2021/06/03 06:33:17;;;;;;;;;;;25.80;99.90;;;26.07;39.07;100899.47;5075411;28;19928;-65
2021/06/03 06:35:48;;;;;;;;;;;26.10;99.90;;;26.19;38.45;100898.34;5074810;28;19924;-65
2021/06/03 06:38:16;;;;;;;;;;;26.40;99.90;;;26.12;38.22;100903.03;5075294;28;19931;-66
2021/06/03 06:40:44;;;;;;;;;;;26.50;99.90;;;26.15;38.17;100908.63;5075189;28;20436;-66
2021/06/03 06:43:12;;;;;;;;;;;26.50;99.90;;;26.07;38.05;100902.25;5075432;28;19924;-65
2021/06/03 06:45:39;;;;;;;;;;;26.70;99.90;;;25.85;38.70;100905.34;5074184;28;19955;-65
2021/06/03 06:48:08;;;;;;;;;;;26.70;99.90;;;25.57;39.02;100908.78;5074907;28;19952;-66
2021/06/03 06:50:37;;;;;;;;;;;26.60;99.90;;;25.14;39.98;100918.81;5074975;28;19925;-66
2021/06/03 06:53:06;;;;;;;;;;;26.60;99.90;;;24.75;40.74;100917.72;5056634;28;19925;-63
2021/06/03 06:55:33;;;;;;;;;;;26.50;99.90;;;24.48;41.22;100919.84;5053964;28;19925;-64
2021/06/03 06:58:01;;;;;;;;;;;26.60;99.90;;;24.18;41.69;100928.25;5053974;28;20003;-65
2021/06/03 07:00:29;;;;;;;;;;;26.60;99.90;;;23.47;43.22;100937.63;5055127;28;19933;-63
2021/06/03 07:02:57;;;;;;;;;;;26.30;99.90;;;22.56;45.85;100948.75;5054792;28;20471;-64
2021/06/03 07:05:24;;;;;;;;;;;25.80;99.90;;;21.60;47.83;100948.81;5053810;28;19933;-66
2021/06/03 07:07:53;;;;;;;;;;;23.60;99.90;;;20.65;50.16;100947.34;5054784;28;19928;-63
2021/06/03 07:10:22;;;;;;;;;;;;;;;20.00;51.68;100954.19;5054855;28;19925;-63
2021/06/03 07:12:50;;;;;;;;;;;22.10;99.90;;;19.61;53.81;100960.50;5054543;28;20306;-63
2021/06/03 07:15:17;;;;;;;;;;;20.70;99.90;;;19.38;53.73;100967.63;5053870;28;19932;-65
2021/06/03 07:17:45;;;;;;;;;;;20.50;99.90;;;19.28;54.93;100954.38;5054332;28;19925;-65
2021/06/03 07:20:14;;;;;;;;;;;20.10;99.90;;;19.13;54.77;100960.56;5054542;28;19951;-65
2021/06/03 07:22:43;;;;;;;;;;;19.80;99.90;;;18.87;55.12;100955.44;5054439;28;19959;-63
2021/06/03 07:25:13;;;;;;;;;;;19.40;99.90;;;18.52;56.39;100958.56;5053510;28;19932;-63
2021/06/03 07:27:41;;;;;;;;;;;19.10;99.90;;;18.55;57.05;100965.31;5054388;28;20401;-64
2021/06/03 07:30:11;;;;;;;;;;;19.10;99.90;;;18.77;57.86;100969.56;5054192;28;19925;-64
2021/06/03 07:32:39;;;;;;;;;;;19.20;99.90;;;18.81;55.30;100976.78;5053980;28;19970;-64
2021/06/03 07:35:10;;;;;;;;;;;19.30;99.90;;;18.77;55.13;100978.59;5053458;28;20461;-63
2021/06/03 07:37:37;;;;;;;;;;;19.30;99.90;;;18.76;55.40;100971.50;5054103;28;19935;-64
2021/06/03 07:40:06;;;;;;;;;;;19.30;99.90;;;18.83;55.35;100979.16;5054266;28;19927;-64
2021/06/03 07:42:35;;;;;;;;;;;19.30;99.90;;;18.96;54.20;100987.06;5053865;28;19932;-64
2021/06/03 07:45:02;;;;;;;;;;;19.40;99.90;;;18.88;53.94;100977.00;5053082;28;20377;-64
2021/06/03 07:47:30;;;;;;;;;;;19.40;99.90;;;18.80;53.74;100975.16;5053889;28;19955;-63
2021/06/03 07:49:57;;;;;;;;;;;19.30;99.90;;;18.85;53.73;100979.59;5054108;28;19936;-64
2021/06/03 07:52:24;;;;;;;;;;;19.20;99.90;;;18.82;53.88;100974.81;5053900;28;19932;-64
2021/06/03 07:54:51;;;;;;;;;;;19.20;99.90;;;18.84;54.06;100980.78;5053249;28;19932;-65
2021/06/03 07:57:19;;;;;;;;;;;19.30;99.90;;;18.86;53.90;100981.22;5053614;28;19925;-63
2021/06/03 07:59:48;;;;;;;;;;;19.20;99.90;;;19.16;53.08;100985.34;5053898;28;19925;-64
2021/06/03 08:02:16;;;;;;;;;;;19.40;99.90;;;19.30;52.24;100982.25;5053729;28;19928;-64
2021/06/03 08:04:43;;;;;;;;;;;19.60;99.90;;;19.33;53.33;100973.34;5052732;28;20233;-63
2021/06/03 08:07:10;;;;;;;;;;;19.70;99.90;;;19.61;52.94;100972.28;5053434;28;20286;-65
2021/06/03 08:09:38;;;;;;;;;;;19.90;99.90;;;19.86;51.89;100973.03;5053744;28;19936;-63
2021/06/03 08:12:06;;;;;;;;;;;20.20;99.90;;;20.01;50.90;100979.72;5053793;28;19929;-63
2021/06/03 08:14:34;;;;;;;;;;;20.40;99.90;;;20.06;50.37;100977.50;5052959;28;20397;-64
2021/06/03 08:17:03;;;;;;;;;;;20.40;99.90;;;20.09;49.76;100976.81;5053088;28;20344;-64
2021/06/03 08:19:31;;;;;;;;;;;20.50;99.90;;;20.15;50.68;100969.16;5053642;28;19929;-64
2021/06/03 08:21:58;;;;;;;;;;;20.50;99.90;;;20.32;50.65;100962.56;5053310;28;19948;-64
2021/06/03 08:24:25;;;;;;;;;;;20.70;99.90;;;20.29;49.44;100963.25;5052890;28;19932;-64
2021/06/03 08:26:53;;;;;;;;;;;20.70;99.90;;;20.08;49.35;100969.75;5052609;28;19925;-64
2021/06/03 08:29:21;;;;;;;;;;;20.60;99.90;;;20.10;50.57;100966.63;5053425;28;19925;-64
2021/06/03 08:31:50;;;;;;;;;;;20.40;99.90;;;20.16;49.36;100970.72;5053280;28;19925;-63
2021/06/03 08:34:19;;;;;;;;;;;;;;;20.26;50.14;100966.72;5052757;28;19941;-63
2021/06/03 08:36:46;;;;;;;;;;;20.60;99.90;;;20.53;49.71;100960.38;5052263;28;20003;-65
2021/06/03 08:39:14;;;;;;;;;;;20.90;99.90;;;20.76;49.54;100966.06;5053090;28;20203;-63
2021/06/03 08:41:42;;;;;;;;;;;21.10;99.90;;;20.99;47.67;100962.34;5053229;28;20421;-63
2021/06/03 08:44:10;;;;;;;;;;;21.40;99.90;;;21.29;48.00;100970.13;5052685;28;19928;-64
2021/06/03 08:46:39;;;;;;;;;;;21.60;99.90;;;21.35;48.25;100966.72;5052292;28;19924;-63
2021/06/03 08:49:07;;;;;;;;;;;21.70;99.90;;;21.59;46.33;100965.69;5052986;28;19925;-65
2021/06/03 08:51:36;;;;;;;;;;;22.00;99.90;;;21.64;46.37;100963.44;5052972;28;20302;-65
2021/06/03 08:54:04;;;;;;;;;;;22.10;99.90;;;21.62;45.45;100956.72;5052465;28;20393;-65
2021/06/03 08:56:32;;;;;;;;;;;22.10;99.90;;;21.51;45.89;100969.44;5051662;28;19925;-65
2021/06/03 08:59:01;;;;;;;;;;;22.00;99.90;;;21.42;46.41;100955.91;5052737;28;19925;-64
2021/06/03 09:01:29;;;;;;;;;;;21.90;99.90;;;21.54;46.00;100965.97;5052790;28;20633;-65
2021/06/03 09:03:57;;;;;;;;;;;21.90;99.90;;;21.67;47.31;100972.97;5052359;28;19929;-65
2021/06/03 09:06:26;;;;;;;;;;;22.00;99.90;;;21.84;47.15;100963.47;5051480;28;19928;-64
2021/06/03 09:08:57;;;;;;;;;;;22.10;99.90;;;21.67;45.12;100968.22;5052611;28;19929;-65
2021/06/03 09:11:26;;;;;;;;;;;22.10;99.90;;;21.70;46.51;100964.75;5052865;28;19925;-64
2021/06/03 09:13:55;;;;;;;;;;;22.10;99.90;;;21.79;45.98;100962.59;5052525;28;20287;-64
2021/06/03 09:16:25;;;;;;;;;;;22.20;99.90;;;21.86;48.49;100963.88;5051582;28;19932;-65
2021/06/03 09:18:54;;;;;;;;;;;22.30;99.90;;;21.68;48.39;100963.53;5052434;28;19925;-65
2021/06/03 09:21:24;;;;;;;;;;;22.20;99.90;;;21.68;49.11;100966.28;5052106;28;19933;-64
2021/06/03 09:23:58;;;;;;;;;;;22.20;99.90;;;21.55;47.76;100967.59;5053331;28;19925;-64
2021/06/03 09:26:27;;;;;;;;;;;22.00;99.90;;;21.43;49.40;100962.22;5051722;28;19924;-65
2021/06/03 09:28:55;;;;;;;;;;;21.90;99.90;;;21.24;50.96;100962.94;5052525;28;20337;-65
2021/06/03 09:31:25;;;;;;;;;;;21.80;99.90;;;21.22;50.46;100959.75;5052208;28;19928;-65
2021/06/03 09:33:56;;;;;;;;;;;21.80;99.90;;;21.13;53.33;100959.94;5052313;28;19994;-64
2021/06/03 09:36:35;;;;;;;;;;;21.60;99.90;;;21.34;51.19;100953.34;5051994;28;19925;-65
2021/06/03 09:39:20;;;;;;;;;;;21.80;99.90;;;21.45;51.97;100957.94;5052288;28;19925;-64
2021/06/03 09:41:50;;;;;;;;;;;21.90;99.90;;;21.47;51.61;100958.34;5052501;28;20393;-65
2021/06/03 09:44:23;;;;;;;;;;;22.00;99.90;;;21.51;50.27;100952.94;5051897;28;19956;-64
2021/06/03 09:46:52;;;;;;;;;;;22.00;99.90;;;21.53;51.44;100951.41;5051457;28;20514;-65
2021/06/03 09:49:23;;;;;;;;;;;22.00;99.90;;;21.25;50.57;100957.06;5052296;28;19978;-65
2021/06/03 09:51:53;;;;;;;;;;;21.80;99.90;;;21.05;50.10;100947.16;5052221;28;19931;-65
2021/06/03 09:54:23;;;;;;;;;;;21.50;99.90;;;20.85;50.61;100947.44;5051569;28;19925;-65
2021/06/03 09:56:55;;;;;;;;;;;21.40;99.90;;;20.79;51.84;100951.63;5051411;28;20428;-64
2021/06/03 09:59:25;;;;;;;;;;;21.30;99.90;;;20.73;51.99;100943.63;5051930;28;19932;-65
2021/06/03 10:02:02;;;;;;;;;;;21.20;99.90;;;20.71;51.13;100945.94;5052225;28;19925;-65
2021/06/03 10:04:39;;;;;;;;;;;21.20;99.90;;;20.72;52.19;100938.50;5051126;28;19928;-64
2021/06/03 10:07:18;;;;;;;;;;;21.20;99.90;;;20.44;52.06;100944.06;5051882;28;19979;-64
2021/06/03 10:09:56;;;;;;;;;;;21.00;99.90;;;20.27;53.39;100944.41;5051963;28;20378;-65
2021/06/03 10:12:42;;;;;;;;;;;20.80;99.90;;;20.28;53.37;100945.19;5052208;28;19925;-65
2021/06/03 10:15:43;;;;;;;;;;;20.80;99.90;;;20.23;53.46;100946.22;5050818;28;19928;-65
2021/06/03 10:18:14;;;;;;;;;;;20.70;99.90;;;20.14;53.38;100949.13;5052136;28;19925;-65
2021/06/03 10:20:43;;;;;;;;;;;20.60;99.90;;;20.08;53.33;100952.47;5052107;28;19956;-65
2021/06/03 10:23:12;;;;;;;;;;;20.60;99.90;;;20.29;53.31;100963.25;5051841;28;20374;-64
2021/06/03 10:25:42;;;;;;;;;;;20.70;99.90;;;20.15;52.13;100958.16;5050608;28;19929;-65
2021/06/03 10:28:11;;;;;;;;;;;20.70;99.90;;;20.12;52.26;100965.13;5051792;28;19928;-64
2021/06/03 10:30:41;;;;;;;;;;;20.60;99.90;;;20.04;52.71;100959.78;5051766;28;19925;-65
2021/06/03 10:33:12;;;;;;;;;;;20.60;99.90;;;20.11;53.52;100960.00;5052959;28;20370;-65
2021/06/03 10:35:40;;;;;;;;;;;20.60;99.90;;;20.14;54.04;100965.59;5054263;28;19936;-65
2021/06/03 10:38:08;;;;;;;;;;;20.60;99.90;;;20.24;54.38;100958.81;5055073;28;20298;-64
2021/06/03 10:40:38;;;;;;;;;;;20.70;99.90;;;20.41;53.55;100960.44;5055673;28;20277;-65
2021/06/03 10:43:07;;;;;;;;;;;20.80;99.90;;;20.52;53.68;100967.81;5055309;28;19928;-65
2021/06/03 10:45:36;;;;;;;;;;;21.00;99.90;;;20.47;53.80;100961.78;5053976;28;19939;-64
2021/06/03 10:48:05;;;;;;;;;;;21.00;99.90;;;20.41;54.23;100972.22;5054920;28;20397;-64
2021/06/03 10:50:37;;;;;;;;;;;21.00;99.90;;;20.43;54.15;100971.88;5055064;28;19924;-65
2021/06/03 10:53:08;;;;;;;;;;;20.90;99.90;;;20.41;54.05;100972.22;5055515;28;19929;-65
2021/06/03 10:55:37;;;;;;;;;;;20.90;99.90;;;20.35;53.36;100973.63;5054083;28;19947;-65
2021/06/03 10:58:07;;;;;;;;;;;20.90;99.90;;;20.26;54.39;100978.50;5054809;28;20306;-65
2021/06/03 11:00:37;;;;;;;;;;;20.70;99.90;;;20.15;54.12;100975.41;5055120;28;19928;-64
2021/06/03 11:03:07;;;;;;;;;;;20.70;99.90;;;20.17;54.47;100981.38;5054885;28;19928;-65
2021/06/03 11:05:37;;;;;;;;;;;20.60;99.90;;;20.09;53.79;100993.28;5053515;28;19924;-65
2021/06/03 11:08:32;;;;;;;;;;;20.60;99.90;;;19.94;52.48;100996.00;5054461;28;19932;-64
2021/06/03 11:11:24;;;;;;;;;;;20.50;99.90;;;19.45;53.65;100989.81;5030677;28;19932;-64
2021/06/03 11:14:09;;;;;;;;;;;;;;;19.32;55.25;100993.69;5048968;28;19925;-64
2021/06/03 11:16:53;;;;;;;;;;;19.70;99.90;;;19.38;55.59;100995.03;5053777;28;20378;-65
2021/06/03 11:19:25;;;;;;;;;;;19.80;99.90;;;19.63;55.05;100997.44;5054474;28;19924;-64